Time;durP1;ratioP1;P1;durP2;ratioP2;P2;SDS_P1;SDS_P2;PMS_P1;PMS_P2;Temp;Humidity;BMP_temperature;BMP_pressure;BME280_temperature;BME280_humidity;BME280_pressure;Samples;Min_cycle;Max_cycle;Signal;HPM_P1;HPM_P2
2022/12/26 00:01:49;;;;;;;87.07;42.97;;;4.40;99.90;;;;;;10360869;28;20030;-83
2022/12/26 00:06:50;;;;;;;79.07;40.43;;;4.40;99.90;;;;;;10340776;28;20761;-83
2022/12/26 00:11:50;;;;;;;98.17;43.97;;;4.40;99.90;;;;;;10331705;28;20053;-82
2022/12/26 00:16:51;;;;;;;80.93;39.37;;;4.30;99.90;;;;;;10333297;28;20049;-82
2022/12/26 00:21:52;;;;;;;82.33;39.40;;;4.20;99.90;;;;;;10351908;28;20127;-82
2022/12/26 00:26:52;;;;;;;90.83;41.37;;;4.20;99.90;;;;;;10327027;28;20037;-83
2022/12/26 00:31:53;;;;;;;85.27;40.73;;;4.10;99.90;;;;;;10334738;28;20676;-84
2022/12/26 00:36:53;;;;;;;99.23;45.53;;;4.00;99.90;;;;;;10327521;28;20026;-83
2022/12/26 00:41:54;;;;;;;93.33;43.60;;;3.80;99.90;;;;;;10323677;28;20109;-82
2022/12/26 00:46:54;;;;;;;106.63;45.80;;;3.60;99.90;;;;;;10331674;28;20042;-83
2022/12/26 00:51:55;;;;;;;120.23;50.53;;;3.50;99.90;;;;;;10333138;28;20061;-83
2022/12/26 00:56:56;;;;;;;115.47;50.60;;;3.50;99.90;;;;;;10334274;28;20067;-84
2022/12/26 01:01:56;;;;;;;124.77;53.20;;;3.50;99.90;;;;;;10323509;28;20378;-82
2022/12/26 01:06:57;;;;;;;104.10;49.63;;;3.60;99.90;;;;;;10325030;28;20029;-82
2022/12/26 01:11:57;;;;;;;105.57;50.30;;;3.70;99.90;;;;;;10348691;28;20049;-84
2022/12/26 01:16:58;;;;;;;113.57;53.10;;;3.80;99.90;;;;;;10356906;28;20054;-83
2022/12/26 01:21:59;;;;;;;118.47;56.57;;;3.90;99.90;;;;;;10359187;28;20085;-83
2022/12/26 01:26:59;;;;;;;115.17;51.00;;;4.00;99.90;;;;;;10358875;28;20034;-83
2022/12/26 01:32:00;;;;;;;111.70;54.30;;;4.10;99.90;;;;;;10350152;28;20468;-83
2022/12/26 01:37:01;;;;;;;111.93;51.83;;;4.10;99.90;;;;;;10358660;28;20037;-82
2022/12/26 01:42:01;;;;;;;101.33;48.63;;;4.20;99.90;;;;;;10332101;28;20116;-83
2022/12/26 01:47:02;;;;;;;109.53;51.50;;;4.20;99.90;;;;;;10358358;28;20030;-83
2022/12/26 01:52:07;;;;;;;99.10;49.00;;;4.20;99.90;;;;;;10358665;28;20038;-83
2022/12/26 01:57:16;;;;;;;120.17;55.80;;;4.20;99.90;;;;;;10359086;28;20057;-82
2022/12/26 02:02:19;;;;;;;115.93;49.90;;;4.20;99.90;;;;;;10347367;28;20448;-83
2022/12/26 02:07:20;;;;;;;113.43;51.63;;;4.30;99.90;;;;;;10358114;28;20045;-82
2022/12/26 02:12:28;;;;;;;97.63;48.53;;;4.30;99.90;;;;;;10358632;28;20397;-83
2022/12/26 02:17:29;;;;;;;109.80;49.47;;;4.20;99.90;;;;;;10352038;28;20045;-83
2022/12/26 02:22:45;;;;;;;103.47;47.63;;;4.20;99.90;;;;;;10354433;28;20033;-83
2022/12/26 02:28:06;;;;;;;101.53;48.20;;;4.10;99.90;;;;;;10359469;28;20034;-83
2022/12/26 02:33:38;;;;;;;122.37;55.63;;;4.00;99.90;;;;;;10365532;28;20359;-83
2022/12/26 02:39:09;;;;;;;122.73;57.33;;;3.80;99.90;;;;;;10353898;28;20022;-83
2022/12/26 03:17:19;;;;;;;114.20;50.67;;;3.20;99.90;;;;;;10364278;28;20565;-83
2022/12/26 03:22:29;;;;;;;139.93;58.37;;;3.20;99.90;;;;;;10363633;28;20060;-82
2022/12/26 03:27:30;;;;;;;177.87;73.90;;;3.10;99.90;;;;;;10363584;28;20025;-82
2022/12/26 03:32:42;;;;;;;163.97;66.87;;;3.10;99.90;;;;;;10363363;28;20038;-83
2022/12/26 03:37:52;;;;;;;148.57;66.00;;;3.20;99.90;;;;;;10351276;28;20026;-84
2022/12/26 04:54:06;;;;;;;167.03;79.20;;;3.10;99.90;;;;;;10355736;28;20045;-83
2022/12/26 04:59:06;;;;;;;150.90;67.20;;;3.30;99.90;;;;;;10360757;28;20041;-83
2022/12/26 05:09:35;;;;;;;143.67;63.27;;;3.90;99.90;;;;;;10360042;28;20046;-82
2022/12/26 05:14:36;;;;;;;127.30;55.10;;;4.20;99.90;;;;;;10359298;28;20061;-83
2022/12/26 05:30:15;;;;;;;85.50;36.67;;;4.90;99.90;;;;;;10321163;28;20546;-83
2022/12/26 05:35:15;;;;;;;84.40;39.20;;;5.10;99.90;;;;;;10323657;28;20038;-83
2022/12/26 05:40:16;;;;;;;109.43;51.20;;;5.20;99.90;;;;;;10324061;28;20039;-82
2022/12/26 05:45:16;;;;;;;93.30;46.30;;;5.30;99.90;;;;;;10323476;28;20030;-83
2022/12/26 05:50:17;;;;;;;94.67;42.60;;;5.30;99.90;;;;;;10337543;28;20063;-85
2022/12/26 05:55:18;;;;;;;78.13;35.40;;;5.50;99.90;;;;;;10355898;28;20044;-83
2022/12/26 06:00:19;;;;;;;73.23;35.93;;;5.50;99.90;;;;;;10356626;28;20038;-81
2022/12/26 06:05:19;;;;;;;80.93;34.27;;;5.50;99.90;;;;;;10361372;28;20030;-83
2022/12/26 06:10:20;;;;;;;59.63;27.60;;;5.60;99.90;;;;;;10365424;28;20108;-84
2022/12/26 06:15:21;;;;;;;55.77;26.43;;;5.70;99.90;;;;;;10364249;28;20081;-85
2022/12/26 06:20:21;;;;;;;49.83;24.87;;;6.00;99.90;;;;;;10362404;28;20096;-83
2022/12/26 06:25:22;;;;;;;42.60;21.07;;;6.00;99.90;;;;;;10354969;28;20085;-82
2022/12/26 06:30:23;;;;;;;78.33;28.23;;;6.10;99.90;;;;;;10348090;28;20045;-84
2022/12/26 06:35:23;;;;;;;48.23;21.90;;;6.30;99.90;;;;;;10365541;28;20030;-83
2022/12/26 06:40:24;;;;;;;46.87;22.30;;;6.60;99.90;;;;;;10364738;28;20037;-84
2022/12/26 06:45:24;;;;;;;39.03;20.57;;;6.60;99.90;;;;;;10356330;28;20068;-82
2022/12/26 06:50:25;;;;;;;44.87;23.47;;;6.70;99.90;;;;;;10354737;28;20038;-83
2022/12/26 06:55:26;;;;;;;48.83;26.40;;;6.80;99.90;;;;;;10352953;28;20451;-85
2022/12/26 07:00:26;;;;;;;42.97;23.43;;;6.90;99.90;;;;;;10362283;28;20030;-82
2022/12/26 07:05:27;;;;;;;42.57;21.90;;;7.10;99.90;;;;;;10361580;28;20033;-82
2022/12/26 07:10:28;;;;;;;40.53;22.73;;;7.20;99.90;;;;;;10359748;28;20048;-81
2022/12/26 07:15:28;;;;;;;36.73;18.80;;;7.30;99.90;;;;;;10359016;28;20109;-83
2022/12/26 07:20:29;;;;;;;35.20;17.83;;;7.40;99.90;;;;;;10363435;28;20718;-83
2022/12/26 07:25:29;;;;;;;37.03;20.37;;;7.50;99.90;;;;;;10354836;28;20411;-81
2022/12/26 07:30:30;;;;;;;33.97;19.53;;;7.50;99.90;;;;;;10362036;28;20037;-83
2022/12/26 07:35:31;;;;;;;40.37;22.90;;;7.60;99.90;;;;;;10324809;28;20090;-83
2022/12/26 07:40:31;;;;;;;39.20;22.47;;;7.70;99.90;;;;;;10330159;28;20476;-83
2022/12/26 07:45:32;;;;;;;38.53;22.57;;;7.70;99.90;;;;;;10345933;28;20033;-83
2022/12/26 07:50:32;;;;;;;41.23;21.40;;;7.80;99.90;;;;;;10348096;28;20544;-84
2022/12/26 07:55:33;;;;;;;38.93;21.40;;;7.90;99.90;;;;;;10329324;28;20045;-82
2022/12/26 08:00:33;;;;;;;29.97;16.70;;;7.90;99.90;;;;;;10321842;28;20089;-80
2022/12/26 08:05:34;;;;;;;33.40;17.90;;;8.00;99.90;;;;;;10328947;28;20471;-82
2022/12/26 08:10:35;;;;;;;33.03;18.80;;;8.00;99.90;;;;;;10331860;28;20041;-81
2022/12/26 08:15:39;;;;;;;34.33;17.60;;;8.00;99.90;;;;;;10345982;28;20762;-81
2022/12/26 08:20:40;;;;;;;44.10;22.57;;;8.00;99.90;;;;;;10358127;28;20469;-80
2022/12/26 08:25:40;;;;;;;46.23;25.60;;;8.00;99.90;;;;;;10343764;28;20061;-79
2022/12/26 08:30:41;;;;;;;48.03;27.53;;;8.00;99.90;;;;;;10361475;28;20477;-80
2022/12/26 08:35:42;;;;;;;48.10;25.97;;;8.10;99.90;;;;;;10361571;28;20496;-82
2022/12/26 08:40:43;;;;;;;50.20;26.00;;;8.10;99.90;;;;;;10360802;28;20367;-82
2022/12/26 08:45:43;;;;;;;46.33;25.60;;;8.10;99.90;;;;;;10358008;28;20042;-80
2022/12/26 08:50:44;;;;;;;49.40;28.40;;;8.00;99.90;;;;;;10357669;28;20421;-80
2022/12/26 08:55:44;;;;;;;54.93;30.23;;;8.10;99.90;;;;;;10356560;28;20172;-82
2022/12/26 09:00:45;;;;;;;53.33;30.80;;;8.10;99.90;;;;;;10360716;28;20653;-81
2022/12/26 09:05:46;;;;;;;46.90;24.20;;;8.20;99.90;;;;;;10343239;28;20383;-80
2022/12/26 09:10:46;;;;;;;38.23;20.60;;;8.30;99.90;;;;;;10360799;28;20482;-81
2022/12/26 09:15:47;;;;;;;73.70;40.40;;;8.20;99.90;;;;;;10360647;28;20090;-80
2022/12/26 09:20:47;;;;;;;38.43;19.00;;;8.20;99.90;;;;;;10329994;28;21020;-84
2022/12/26 09:25:48;;;;;;;38.23;18.20;;;8.20;99.90;;;;;;10358893;28;20073;-82
2022/12/26 09:30:49;;;;;;;34.53;19.57;;;8.20;99.90;;;;;;10320462;28;20134;-82
2022/12/26 09:35:49;;;;;;;36.50;20.47;;;8.20;99.90;;;;;;10348720;28;20529;-84
2022/12/26 09:41:07;;;;;;;42.47;23.33;;;8.20;99.90;;;;;;10351839;28;20364;-83
2022/12/26 09:46:35;;;;;;;47.57;25.50;;;8.20;99.90;;;;;;10366371;28;20064;-82
2022/12/26 09:51:38;;;;;;;43.97;24.97;;;8.20;99.90;;;;;;10354052;28;20037;-83
2022/12/26 09:56:39;;;;;;;54.10;27.90;;;8.20;99.90;;;;;;10361222;28;20045;-84
2022/12/26 10:01:40;;;;;;;45.70;25.30;;;8.20;99.90;;;;;;10367114;28;20040;-82
2022/12/26 10:06:46;;;;;;;45.40;23.93;;;8.20;99.90;;;;;;10364785;28;20030;-84
2022/12/26 10:12:02;;;;;;;40.63;22.30;;;8.20;99.90;;;;;;10362073;28;20033;-83
2022/12/26 10:17:17;;;;;;;37.47;20.67;;;8.30;99.90;;;;;;10366666;28;20052;-84
2022/12/26 10:22:21;;;;;;;31.75;16.42;;;8.30;99.90;;;;;;10353210;28;20068;-84
2022/12/26 10:27:24;;;;;;;40.93;21.37;;;8.30;99.90;;;;;;10359042;28;20041;-83
2022/12/26 10:32:38;;;;;;;42.67;23.23;;;8.40;99.90;;;;;;10364583;28;20065;-84
2022/12/26 10:37:40;;;;;;;39.87;21.80;;;8.40;99.90;;;;;;10349784;28;20112;-86
2022/12/26 10:42:43;;;;;;;42.07;23.13;;;8.50;99.90;;;;;;10364266;28;20185;-84
2022/12/26 10:47:47;;;;;;;41.60;23.07;;;8.60;99.90;;;;;;10355843;28;20184;-84
2022/12/26 10:52:49;;;;;;;43.57;23.30;;;8.60;99.90;;;;;;10364844;28;20410;-84
2022/12/26 10:57:52;;;;;;;37.70;20.50;;;8.70;99.90;;;;;;10362922;28;20030;-83
2022/12/26 11:03:03;;;;;;;37.90;22.93;;;8.80;99.90;;;;;;10363423;28;20778;-82
2022/12/26 11:08:17;;;;;;;46.93;26.43;;;8.90;99.90;;;;;;10352238;28;20497;-84
2022/12/26 11:13:20;;;;;;;53.10;28.30;;;8.90;99.90;;;;;;10340185;28;20312;-83
2022/12/26 11:18:41;;;;;;;56.73;30.37;;;9.00;99.90;;;;;;10363593;28;20037;-85
2022/12/26 11:23:42;;;;;;;60.92;33.88;;;9.10;99.90;;;;;;10362135;28;20034;-85
2022/12/26 11:28:43;;;;;;;55.00;31.13;;;9.20;99.90;;;;;;10355106;28;20324;-83
2022/12/26 11:33:46;;;;;;;62.67;36.38;;;9.30;99.90;;;;;;10351436;28;20026;-83
2022/12/26 11:38:51;;;;;;;67.80;35.27;;;9.40;99.90;;;;;;10360105;28;20041;-81
2022/12/26 11:43:53;;;;;;;95.35;44.72;;;9.60;99.90;;;;;;10358520;28;20670;-80
2022/12/26 11:48:53;;;;;;;54.73;29.07;;;9.70;99.90;;;;;;10357560;28;20045;-83
2022/12/26 11:54:17;;;;;;;62.20;33.13;;;9.80;99.90;;;;;;10348342;28;20029;-83
2022/12/26 11:59:20;;;;;;;67.20;35.10;;;9.70;99.90;;;;;;10354400;28;20033;-84
2022/12/26 12:04:21;;;;;;;61.88;31.35;;;9.70;99.90;;;;;;10360871;28;20520;-84
2022/12/26 12:09:42;;;;;;;66.53;32.00;;;9.60;99.90;;;;;;10359690;28;20128;-84
2022/12/26 12:14:58;;;;;;;45.63;23.70;;;9.60;99.90;;;;;;10343485;28;20089;-85
2022/12/26 12:20:37;;;;;;;45.90;23.17;;;9.60;99.90;;;;;;10331629;28;20111;-84
2022/12/26 12:25:57;;;;;;;48.97;24.75;;;9.50;99.90;;;;;;10354926;28;20032;-85
2022/12/26 12:31:23;;;;;;;48.53;25.57;;;9.50;99.90;;;;;;10360712;28;20583;-85
2022/12/26 12:36:49;;;;;;;39.27;22.23;;;9.60;99.90;;;;;;10354676;28;20117;-85
2022/12/26 12:42:07;;;;;;;46.77;25.47;;;9.70;99.90;;;;;;10360079;28;20025;-84
2022/12/26 12:47:17;;;;;;;41.15;23.45;;;9.70;99.90;;;;;;10356031;28;20801;-84
2022/12/26 12:52:45;;;;;;;31.55;18.77;;;9.70;99.90;;;;;;10357432;28;20392;-84
2022/12/26 12:57:52;;;;;;;36.83;21.42;;;9.70;99.90;;;;;;10345487;28;20064;-86
2022/12/26 13:02:56;;;;;;;34.20;19.15;;;9.70;99.90;;;;;;10353583;28;20469;-84
2022/12/26 13:08:26;;;;;;;37.20;21.87;;;9.60;99.90;;;;;;10344537;28;20471;-84
2022/12/26 13:13:30;;;;;;;28.63;16.60;;;9.60;99.90;;;;;;10323228;28;20061;-82
2022/12/26 13:18:36;;;;;;;28.48;17.58;;;9.60;99.90;;;;;;10349449;28;20389;-82
2022/12/26 13:29:39;;;;;;;33.63;19.43;;;9.60;99.90;;;;;;10355464;28;20046;-82
2022/12/26 13:34:43;;;;;;;38.40;23.00;;;9.60;99.90;;;;;;10348748;28;20112;-82
2022/12/26 13:39:44;;;;;;;32.20;18.90;;;9.50;99.90;;;;;;10358951;28;20040;-82
2022/12/26 13:44:45;;;;;;;34.50;19.43;;;9.50;99.90;;;;;;10351084;28;20049;-82
2022/12/26 13:49:45;;;;;;;44.33;25.00;;;9.50;99.90;;;;;;10344548;28;20406;-83
2022/12/26 13:54:46;;;;;;;29.70;18.13;;;9.50;99.90;;;;;;10343289;28;20052;-82
2022/12/26 14:00:05;;;;;;;30.23;18.27;;;9.50;99.90;;;;;;10343930;28;20029;-82
2022/12/26 14:05:41;;;;;;;28.13;16.70;;;9.50;99.90;;;;;;10346671;28;20033;-82
2022/12/26 14:11:13;;;;;;;28.63;16.45;;;9.50;99.90;;;;;;10313203;28;20089;-82
2022/12/26 14:16:44;;;;;;;31.87;17.97;;;9.50;99.90;;;;;;10354764;28;20057;-83
2022/12/26 14:22:03;;;;;;;32.03;18.38;;;9.50;99.90;;;;;;10348898;28;20041;-82
2022/12/26 14:27:12;;;;;;;35.10;19.93;;;9.50;99.90;;;;;;10363278;28;20038;-81
2022/12/26 14:32:43;;;;;;;41.13;22.23;;;9.30;99.90;;;;;;10359371;28;20163;-82
2022/12/26 14:38:05;;;;;;;49.27;23.93;;;9.20;99.90;;;;;;10357923;28;20081;-83
2022/12/26 14:43:22;;;;;;;46.23;24.67;;;9.10;99.90;;;;;;10365330;28;20021;-81
2022/12/26 14:48:22;;;;;;;62.50;29.33;;;9.00;99.90;;;;;;10356528;28;20026;-81
2022/12/26 14:53:23;;;;;;;61.43;29.43;;;9.00;99.90;;;;;;10342536;28;20033;-82
2022/12/26 14:58:30;;;;;;;44.50;22.97;;;8.90;99.90;;;;;;10335936;28;20583;-81
2022/12/26 15:03:58;;;;;;;49.70;25.07;;;8.90;99.90;;;;;;10361030;28;20073;-83
2022/12/26 15:09:33;;;;;;;47.30;23.07;;;8.80;99.90;;;;;;10357941;28;20053;-82
2022/12/26 15:15:25;;;;;;;39.30;19.07;;;8.80;99.90;;;;;;10360649;28;20153;-81
2022/12/26 15:21:02;;;;;;;38.47;20.23;;;8.80;99.90;;;;;;10332411;28;20041;-82
2022/12/26 15:26:30;;;;;;;39.40;21.20;;;8.80;99.90;;;;;;10360259;28;20033;-82
2022/12/26 15:31:35;;;;;;;43.37;23.00;;;8.80;99.90;;;;;;10353370;28;20718;-82
2022/12/26 15:36:45;;;;;;;38.87;22.33;;;8.80;99.90;;;;;;10362606;28;20036;-81
2022/12/26 15:41:47;;;;;;;37.80;20.70;;;8.70;99.90;;;;;;10345077;28;20057;-82
2022/12/26 15:47:11;;;;;;;47.30;25.67;;;8.70;99.90;;;;;;10361743;28;20140;-82
2022/12/26 15:52:20;;;;;;;56.57;31.23;;;8.60;99.90;;;;;;10363031;28;20100;-83
2022/12/26 15:57:41;;;;;;;51.40;31.17;;;8.60;99.90;;;;;;10360859;28;20060;-82
2022/12/26 16:03:00;;;;;;;43.67;27.20;;;8.60;99.90;;;;;;10335687;28;20418;-80
2022/12/26 16:08:36;;;;;;;42.60;26.23;;;8.60;99.90;;;;;;10324094;28;20155;-81
2022/12/26 16:13:51;;;;;;;45.50;25.05;;;8.60;99.90;;;;;;10285932;28;20383;-81
2022/12/26 16:18:52;;;;;;;32.00;18.63;;;8.70;99.90;;;;;;10319447;28;20125;-81
2022/12/26 16:23:55;;;;;;;35.70;18.97;;;8.70;99.90;;;;;;10330060;28;20034;-81
2022/12/26 16:28:58;;;;;;;32.83;17.83;;;8.70;99.90;;;;;;10320883;28;20705;-81
2022/12/26 16:33:59;;;;;;;44.17;23.90;;;8.60;99.90;;;;;;10343383;28;20532;-82
2022/12/26 16:39:01;;;;;;;33.50;18.20;;;8.60;99.90;;;;;;10319767;28;20364;-81
2022/12/26 16:44:30;;;;;;;27.93;15.37;;;8.50;99.90;;;;;;10334151;28;20030;-82
2022/12/26 16:49:32;;;;;;;30.00;17.33;;;8.50;99.90;;;;;;10337490;28;20141;-81
2022/12/26 16:54:39;;;;;;;32.43;17.00;;;8.50;99.90;;;;;;10339131;28;20052;-81
2022/12/26 16:59:46;;;;;;;26.57;16.20;;;8.50;99.90;;;;;;10331697;28;20034;-81
2022/12/26 17:04:58;;;;;;;39.10;22.03;;;8.50;99.90;;;;;;10355823;28;20044;-82
2022/12/26 17:10:02;;;;;;;58.07;29.10;;;8.50;99.90;;;;;;10360057;28;20053;-82
2022/12/26 17:15:05;;;;;;;79.00;37.10;;;8.50;99.90;;;;;;10335932;28;20053;-82
2022/12/26 17:20:31;;;;;;;135.27;57.07;;;8.50;99.90;;;;;;10351382;28;20068;-82
2022/12/26 17:25:32;;;;;;;77.33;32.90;;;8.50;99.90;;;;;;10349486;28;20041;-82
2022/12/26 17:30:38;;;;;;;70.30;30.87;;;8.40;99.90;;;;;;10358888;28;20152;-82
2022/12/26 17:35:39;;;;;;;46.17;22.85;;;8.50;99.90;;;;;;10358675;28;20030;-82
2022/12/26 17:40:40;;;;;;;85.73;39.20;;;8.50;99.90;;;;;;10348498;28;20560;-82
2022/12/26 17:45:43;;;;;;;90.37;40.83;;;8.50;99.90;;;;;;10339168;28;20026;-82
2022/12/26 17:50:46;;;;;;;50.97;25.90;;;8.40;99.90;;;;;;10332293;28;20052;-81
2022/12/26 17:55:48;;;;;;;54.63;26.67;;;8.50;99.90;;;;;;10358719;28;20128;-82
2022/12/26 18:00:49;;;;;;;76.50;34.53;;;8.50;99.90;;;;;;10363038;28;20050;-82
2022/12/26 18:05:52;;;;;;;64.93;31.33;;;8.50;99.90;;;;;;10360626;28;20494;-82
2022/12/26 18:10:53;;;;;;;71.53;34.03;;;8.50;99.90;;;;;;10347608;28;20053;-82
2022/12/26 18:15:55;;;;;;;62.53;31.33;;;8.50;99.90;;;;;;10342857;28;20069;-82
2022/12/26 18:20:55;;;;;;;53.47;29.47;;;8.50;99.90;;;;;;10342831;28;20486;-81
2022/12/26 18:25:59;;;;;;;51.57;27.93;;;8.50;99.90;;;;;;10360331;28;20038;-84
2022/12/26 18:30:59;;;;;;;64.97;33.80;;;8.50;99.90;;;;;;10346016;28;20745;-82
2022/12/26 18:36:00;;;;;;;52.10;30.67;;;8.50;99.90;;;;;;10346058;28;20034;-83
2022/12/26 18:41:01;;;;;;;72.93;40.33;;;8.40;99.90;;;;;;10361189;28;20060;-82
2022/12/26 18:46:01;;;;;;;70.90;39.90;;;8.40;99.90;;;;;;10329559;28;20530;-81
2022/12/26 18:51:03;;;;;;;59.40;34.70;;;8.40;99.90;;;;;;10332115;28;20046;-83
2022/12/26 18:56:05;;;;;;;67.30;37.07;;;8.40;99.90;;;;;;10358355;28;20405;-82
2022/12/26 19:01:06;;;;;;;89.17;49.43;;;8.40;99.90;;;;;;10349868;28;20062;-82
2022/12/26 19:06:29;;;;;;;61.73;35.30;;;8.40;99.90;;;;;;10333273;28;20113;-83
2022/12/26 19:11:29;;;;;;;56.17;32.70;;;8.30;99.90;;;;;;10331865;28;20038;-84
2022/12/26 19:16:30;;;;;;;52.73;30.07;;;8.20;99.90;;;;;;10322320;28;20058;-82
2022/12/26 19:21:30;;;;;;;51.43;29.47;;;8.20;99.90;;;;;;10358015;28;20030;-81
2022/12/26 19:26:31;;;;;;;56.23;31.53;;;8.30;99.90;;;;;;10329239;28;20029;-82
2022/12/26 19:31:31;;;;;;;52.87;29.50;;;8.20;99.90;;;;;;10346227;28;20043;-81
2022/12/26 19:36:32;;;;;;;56.43;31.97;;;8.20;99.90;;;;;;10336589;28;20026;-82
2022/12/26 19:41:33;;;;;;;50.07;27.73;;;8.20;99.90;;;;;;10356318;28;20537;-83
2022/12/26 19:46:33;;;;;;;51.10;28.03;;;8.20;99.90;;;;;;10347205;28;20065;-84
2022/12/26 19:51:34;;;;;;;59.43;32.67;;;8.20;99.90;;;;;;10343202;28;20141;-83
2022/12/26 19:56:34;;;;;;;55.33;31.03;;;8.10;99.90;;;;;;10346562;28;20113;-82
2022/12/26 20:01:35;;;;;;;62.53;30.63;;;8.10;99.90;;;;;;10358341;28;20057;-80
2022/12/26 20:06:37;;;;;;;70.63;36.23;;;8.10;99.90;;;;;;10346461;28;20452;-80
2022/12/26 20:11:44;;;;;;;71.60;34.80;;;8.00;99.90;;;;;;10359994;28;20038;-79
2022/12/26 20:16:50;;;;;;;68.67;36.80;;;8.00;99.90;;;;;;10345752;28;20057;-79
2022/12/26 20:21:51;;;;;;;54.20;29.17;;;8.00;99.90;;;;;;10354746;28;20505;-79
2022/12/26 20:26:52;;;;;;;61.33;31.03;;;7.90;99.90;;;;;;10355064;28;20025;-80
2022/12/26 20:31:55;;;;;;;64.73;31.67;;;7.90;99.90;;;;;;10342152;28;20132;-79
2022/12/26 20:36:56;;;;;;;61.73;33.17;;;7.80;99.90;;;;;;10358989;28;20042;-80
2022/12/26 20:41:56;;;;;;;64.17;32.10;;;7.80;99.90;;;;;;10349129;28;20041;-79
2022/12/26 20:46:57;;;;;;;61.63;32.23;;;7.80;99.90;;;;;;10357851;28;20037;-80
2022/12/26 20:51:58;;;;;;;57.70;30.13;;;7.80;99.90;;;;;;10359672;28;20058;-79
2022/12/26 20:56:58;;;;;;;52.23;28.90;;;7.80;99.90;;;;;;10359729;28;20698;-80
2022/12/26 21:01:59;;;;;;;60.73;31.87;;;7.80;99.90;;;;;;10349447;28;20041;-80
2022/12/26 21:06:59;;;;;;;65.10;31.87;;;7.90;99.90;;;;;;10358669;28;20038;-80
2022/12/26 21:12:00;;;;;;;80.20;37.60;;;7.80;99.90;;;;;;10360448;28;20053;-80
2022/12/26 21:17:01;;;;;;;61.77;32.47;;;7.80;99.90;;;;;;10358069;28;20057;-80
2022/12/26 21:22:01;;;;;;;57.57;29.90;;;7.90;99.90;;;;;;10359745;28;20029;-80
2022/12/26 21:27:03;;;;;;;60.50;29.00;;;7.90;99.90;;;;;;10359237;28;20116;-79
2022/12/26 21:32:04;;;;;;;58.00;30.33;;;7.90;99.90;;;;;;10358429;28;20084;-80
2022/12/26 21:42:31;;;;;;;60.30;30.37;;;7.80;99.90;;;;;;10309606;28;20116;-79
2022/12/26 21:47:32;;;;;;;50.63;28.40;;;7.80;99.90;;;;;;10364844;28;20026;-80
2022/12/26 21:52:32;;;;;;;60.93;32.27;;;7.80;99.90;;;;;;10366619;28;20509;-80
2022/12/26 21:57:33;;;;;;;65.23;35.30;;;7.80;99.90;;;;;;10367268;28;20045;-79
2022/12/26 22:07:58;;;;;;;68.07;36.23;;;7.80;99.90;;;;;;10366372;28;20034;-80
2022/12/26 22:13:00;;;;;;;78.23;41.57;;;7.80;99.90;;;;;;10365911;28;20490;-80
2022/12/26 22:18:01;;;;;;;80.73;40.53;;;7.80;99.90;;;;;;10331289;28;20029;-80
2022/12/26 22:23:03;;;;;;;69.27;36.57;;;7.70;99.90;;;;;;10355051;28;20034;-80
2022/12/26 22:28:03;;;;;;;78.57;41.40;;;7.70;99.90;;;;;;10331070;28;20158;-81
2022/12/26 22:33:04;;;;;;;66.40;35.90;;;7.70;99.90;;;;;;10335377;28;20478;-81
2022/12/26 22:38:05;;;;;;;60.50;34.33;;;7.70;99.90;;;;;;10333624;28;20017;-81
2022/12/26 22:43:05;;;;;;;61.30;34.00;;;7.70;99.90;;;;;;10352451;28;20032;-81
2022/12/26 22:48:06;;;;;;;70.73;40.63;;;7.70;99.90;;;;;;10342910;28;20835;-81
2022/12/26 22:53:06;;;;;;;75.03;40.93;;;7.70;99.90;;;;;;10335929;28;20034;-81
2022/12/26 22:58:07;;;;;;;81.50;44.00;;;7.60;99.90;;;;;;10336517;28;20018;-81
2022/12/26 23:03:08;;;;;;;91.30;49.20;;;7.60;99.90;;;;;;10322937;28;20030;-82
2022/12/26 23:08:14;;;;;;;86.43;46.60;;;7.60;99.90;;;;;;10333622;28;20026;-81
2022/12/26 23:13:15;;;;;;;87.30;45.30;;;7.50;99.90;;;;;;10333084;28;20397;-82
2022/12/26 23:24:00;;;;;;;70.03;35.90;;;7.50;99.90;;;;;;10334682;28;20054;-82
2022/12/26 23:34:20;;;;;;;70.87;36.00;;;7.50;99.90;;;;;;10338755;28;20046;-81
2022/12/26 23:39:20;;;;;;;79.67;38.40;;;7.50;99.90;;;;;;10332115;28;20461;-82
2022/12/26 23:44:21;;;;;;;81.23;38.73;;;7.40;99.90;;;;;;10342922;28;20675;-79
2022/12/26 23:49:21;;;;;;;75.97;37.80;;;7.40;99.90;;;;;;10326335;28;20061;-79
2022/12/26 23:54:22;;;;;;;66.00;33.80;;;7.50;99.90;;;;;;10327141;28;20037;-80
2022/12/26 23:59:23;;;;;;;62.73;32.67;;;7.50;99.90;;;;;;10325680;28;20081;-80
